Time;durP1;ratioP1;P1;durP2;ratioP2;P2;SDS_P1;SDS_P2;PMS_P1;PMS_P2;Temp;Humidity;BMP_temperature;BMP_pressure;BME280_temperature;BME280_humidity;BME280_pressure;Samples;Min_cycle;Max_cycle;Signal;HPM_P1;HPM_P2
2022/09/17 00:00:13;;;;;;;7.25;2.20;;;;;;;;;;4788625;30;20031;-69
2022/09/17 00:02:39;;;;;;;3.70;1.58;;;;;;;;;;4788444;30;20030;-68
2022/09/17 00:05:05;;;;;;;4.25;1.67;;;;;;;;;;4788425;30;20043;-69
2022/09/17 00:07:32;;;;;;;5.15;1.88;;;;;;;;;;4788146;30;20520;-69
2022/09/17 00:09:58;;;;;;;2.40;1.60;;;;;;;;;;4788077;30;20035;-69
2022/09/17 00:12:24;;;;;;;3.45;1.63;;;;;;;;;;4802854;29;20110;-68
2022/09/17 00:14:51;;;;;;;4.57;1.70;;;;;;;;;;4806154;29;20041;-69
2022/09/17 00:17:17;;;;;;;1.75;1.48;;;;;;;;;;4806269;29;20045;-69
2022/09/17 00:19:43;;;;;;;3.35;1.70;;;;;;;;;;4806236;29;20027;-69
2022/09/17 00:22:09;;;;;;;4.45;1.88;;;;;;;;;;4806065;29;20041;-69
2022/09/17 00:24:36;;;;;;;5.07;1.73;;;;;;;;;;4805852;29;20047;-69
2022/09/17 00:27:02;;;;;;;2.67;1.77;;;;;;;;;;4804645;29;20043;-69
2022/09/17 00:29:28;;;;;;;5.18;2.03;;;;;;;;;;4805871;29;20091;-69
2022/09/17 00:31:55;;;;;;;3.75;1.77;;;;;;;;;;4802405;29;20050;-69
2022/09/17 00:34:21;;;;;;;4.68;1.70;;;;;;;;;;4787837;30;20028;-69
2022/09/17 00:36:47;;;;;;;3.05;1.80;;;;;;;;;;4787772;30;20092;-68
2022/09/17 00:39:15;;;;;;;3.80;1.77;;;;;;;;;;4787368;30;20038;-69
2022/09/17 00:41:41;;;;;;;4.63;1.73;;;;;;;;;;4786670;30;20031;-69
2022/09/17 00:44:26;;;;;;;3.95;1.73;;;;;;;;;;4787621;30;20026;-68
2022/09/17 00:46:52;;;;;;;4.60;1.80;;;;;;;;;;4787524;30;20038;-69
2022/09/17 00:49:24;;;;;;;2.38;1.42;;;;;;;;;;4787861;30;20034;-68
2022/09/17 00:51:56;;;;;;;4.70;1.63;;;;;;;;;;4787815;30;20039;-69
2022/09/17 00:54:23;;;;;;;3.25;1.67;;;;;;;;;;4787196;30;20031;-68
2022/09/17 00:56:50;;;;;;;4.43;1.85;;;;;;;;;;4787554;29;20397;-69
2022/09/17 00:59:17;;;;;;;5.40;1.83;;;;;;;;;;4787412;30;20038;-69
2022/09/17 01:01:44;;;;;;;5.65;1.80;;;;;;;;;;4787378;30;20493;-69
2022/09/17 01:04:17;;;;;;;6.30;2.13;;;;;;;;;;4787426;30;20032;-68
2022/09/17 01:06:46;;;;;;;3.83;1.50;;;;;;;;;;4787308;29;20051;-68
2022/09/17 01:09:12;;;;;;;3.47;1.77;;;;;;;;;;4786906;30;20394;-68
2022/09/17 01:11:45;;;;;;;3.97;1.90;;;;;;;;;;4796499;29;20026;-68
2022/09/17 01:14:22;;;;;;;6.38;2.45;;;;;;;;;;4805177;29;20484;-69
2022/09/17 01:16:52;;;;;;;4.45;1.92;;;;;;;;;;4805316;29;20501;-69
2022/09/17 01:19:24;;;;;;;4.60;2.20;;;;;;;;;;4805150;29;20382;-69
2022/09/17 01:22:00;;;;;;;7.80;2.10;;;;;;;;;;4804820;29;20035;-68
2022/09/17 01:24:45;;;;;;;5.35;2.03;;;;;;;;;;4805183;29;20027;-69
2022/09/17 01:27:26;;;;;;;7.40;2.25;;;;;;;;;;4804939;29;20053;-69
2022/09/17 01:30:05;;;;;;;4.63;2.03;;;;;;;;;;4805049;29;20031;-68
2022/09/17 01:32:31;;;;;;;2.67;1.42;;;;;;;;;;4797268;29;20027;-69
2022/09/17 01:35:01;;;;;;;5.13;1.90;;;;;;;;;;4786940;30;20035;-68
2022/09/17 01:37:27;;;;;;;4.40;2.08;;;;;;;;;;4786694;30;20027;-68
2022/09/17 01:39:57;;;;;;;6.15;2.28;;;;;;;;;;4787062;29;20039;-69
2022/09/17 01:42:38;;;;;;;5.55;1.90;;;;;;;;;;4786866;29;20035;-69
2022/09/17 01:45:05;;;;;;;7.80;2.13;;;;;;;;;;4788796;29;20486;-69
2022/09/17 01:47:34;;;;;;;2.92;1.95;;;;;;;;;;4790633;29;20051;-68
2022/09/17 01:50:06;;;;;;;10.15;2.28;;;;;;;;;;4790570;30;20026;-69
2022/09/17 01:52:35;;;;;;;5.90;2.58;;;;;;;;;;4790188;29;20045;-69
2022/09/17 01:55:04;;;;;;;3.72;2.05;;;;;;;;;;4790592;30;20028;-69
2022/09/17 01:57:43;;;;;;;5.63;2.10;;;;;;;;;;4790541;30;20033;-68
2022/09/17 02:00:12;;;;;;;6.30;2.10;;;;;;;;;;4790457;30;20054;-69
2022/09/17 02:02:41;;;;;;;4.30;2.10;;;;;;;;;;4790391;30;20027;-68
2022/09/17 02:05:10;;;;;;;5.65;1.80;;;;;;;;;;4790492;30;20024;-69
2022/09/17 02:07:45;;;;;;;5.97;1.90;;;;;;;;;;4789746;29;20053;-69
2022/09/17 02:10:17;;;;;;;8.75;2.35;;;;;;;;;;4790614;30;20041;-69
2022/09/17 02:12:50;;;;;;;6.85;1.85;;;;;;;;;;4807395;29;20063;-68
2022/09/17 02:15:20;;;;;;;7.68;2.30;;;;;;;;;;4808472;29;20038;-69
2022/09/17 02:17:52;;;;;;;2.95;1.85;;;;;;;;;;4808147;29;20079;-68
2022/09/17 02:20:23;;;;;;;4.40;2.10;;;;;;;;;;4807726;29;20034;-68
2022/09/17 02:22:55;;;;;;;4.28;2.03;;;;;;;;;;4808111;29;20033;-69
2022/09/17 02:25:22;;;;;;;5.13;2.20;;;;;;;;;;4808087;29;20031;-69
2022/09/17 02:28:17;;;;;;;5.25;2.28;;;;;;;;;;4807684;29;20046;-68
2022/09/17 02:30:43;;;;;;;4.82;2.08;;;;;;;;;;4807184;29;20069;-69
2022/09/17 02:33:11;;;;;;;4.90;2.13;;;;;;;;;;4795242;29;20036;-69
2022/09/17 02:35:38;;;;;;;5.53;2.30;;;;;;;;;;4789486;30;20030;-69
2022/09/17 02:38:04;;;;;;;5.80;1.83;;;;;;;;;;4789763;30;20037;-69
2022/09/17 02:40:34;;;;;;;7.50;2.22;;;;;;;;;;4790146;30;20036;-68
2022/09/17 02:43:27;;;;;;;6.38;2.40;;;;;;;;;;4789867;30;20027;-69
2022/09/17 02:46:03;;;;;;;6.63;2.30;;;;;;;;;;4789554;29;20039;-68
2022/09/17 02:48:32;;;;;;;4.95;1.80;;;;;;;;;;4789775;29;20049;-69
2022/09/17 02:51:01;;;;;;;4.65;2.10;;;;;;;;;;4789286;29;20023;-68
2022/09/17 02:53:31;;;;;;;3.72;2.40;;;;;;;;;;4789635;29;20027;-68
2022/09/17 02:56:16;;;;;;;4.03;2.42;;;;;;;;;;4788332;29;20031;-68
2022/09/17 02:58:46;;;;;;;5.10;2.13;;;;;;;;;;4789788;30;20023;-68
2022/09/17 03:01:17;;;;;;;6.68;2.35;;;;;;;;;;4789600;30;20053;-69
2022/09/17 03:03:45;;;;;;;4.13;2.05;;;;;;;;;;4789105;30;20019;-69
2022/09/17 03:06:12;;;;;;;5.07;2.40;;;;;;;;;;4789373;30;20063;-69
2022/09/17 03:08:40;;;;;;;4.82;2.22;;;;;;;;;;4789472;30;20031;-69
2022/09/17 03:11:08;;;;;;;4.35;2.22;;;;;;;;;;4794348;29;20405;-68
2022/09/17 03:13:35;;;;;;;4.70;2.38;;;;;;;;;;4807096;29;20508;-69
2022/09/17 03:16:05;;;;;;;6.32;2.60;;;;;;;;;;4807395;29;20027;-68
2022/09/17 03:18:31;;;;;;;3.85;2.15;;;;;;;;;;4806880;29;20034;-69
2022/09/17 03:20:57;;;;;;;5.32;2.50;;;;;;;;;;4807288;29;20033;-68
2022/09/17 03:23:24;;;;;;;6.35;2.50;;;;;;;;;;4807088;29;20031;-69
2022/09/17 03:25:51;;;;;;;5.32;2.17;;;;;;;;;;4806887;29;20030;-68
2022/09/17 03:28:17;;;;;;;7.03;2.10;;;;;;;;;;4807164;29;20034;-69
2022/09/17 03:30:44;;;;;;;5.55;2.28;;;;;;;;;;4806982;29;20049;-69
2022/09/17 03:33:10;;;;;;;8.88;2.40;;;;;;;;;;4794147;29;20057;-68
2022/09/17 03:35:37;;;;;;;6.38;2.13;;;;;;;;;;4788960;29;20031;-69
2022/09/17 03:38:04;;;;;;;5.13;1.83;;;;;;;;;;4787577;30;20027;-68
2022/09/17 03:40:30;;;;;;;4.45;2.00;;;;;;;;;;4788897;30;20031;-69
2022/09/17 03:42:56;;;;;;;8.25;2.70;;;;;;;;;;4787572;30;20059;-68
2022/09/17 03:45:23;;;;;;;5.90;2.15;;;;;;;;;;4788678;30;20028;-69
2022/09/17 03:47:49;;;;;;;5.95;1.83;;;;;;;;;;4788214;30;20043;-68
2022/09/17 03:50:15;;;;;;;8.60;2.30;;;;;;;;;;4788668;30;20027;-68
2022/09/17 03:52:42;;;;;;;7.13;2.42;;;;;;;;;;4788564;30;20033;-68
2022/09/17 03:55:10;;;;;;;6.93;2.20;;;;;;;;;;4788386;30;20557;-68
2022/09/17 03:57:36;;;;;;;5.63;2.08;;;;;;;;;;4788364;30;20548;-69
2022/09/17 04:00:04;;;;;;;5.40;2.28;;;;;;;;;;4788661;29;20044;-68
2022/09/17 04:02:30;;;;;;;6.28;1.95;;;;;;;;;;4788286;30;20037;-69
2022/09/17 04:04:57;;;;;;;4.93;2.38;;;;;;;;;;4788345;30;20520;-69
2022/09/17 04:07:23;;;;;;;7.85;2.47;;;;;;;;;;4786921;29;20043;-69
2022/09/17 04:09:50;;;;;;;5.75;2.35;;;;;;;;;;4788211;30;20027;-68
2022/09/17 04:12:16;;;;;;;8.48;2.45;;;;;;;;;;4801856;29;20551;-68
2022/09/17 04:14:42;;;;;;;4.45;2.50;;;;;;;;;;4806210;29;20033;-69
2022/09/17 04:17:09;;;;;;;5.35;2.03;;;;;;;;;;4805754;29;20039;-68
2022/09/17 04:19:35;;;;;;;12.80;3.00;;;;;;;;;;4806110;29;20494;-69
2022/09/17 04:22:01;;;;;;;4.70;2.17;;;;;;;;;;4806155;29;20037;-68
2022/09/17 04:24:28;;;;;;;6.55;2.40;;;;;;;;;;4806256;29;20031;-68
2022/09/17 04:26:54;;;;;;;7.18;2.60;;;;;;;;;;4805729;29;20454;-69
2022/09/17 04:29:20;;;;;;;4.75;2.40;;;;;;;;;;4805955;29;20023;-68
2022/09/17 04:31:47;;;;;;;8.25;2.22;;;;;;;;;;4803253;29;20408;-68
2022/09/17 04:34:13;;;;;;;8.35;2.30;;;;;;;;;;4788140;30;20033;-68
2022/09/17 04:36:39;;;;;;;5.70;2.28;;;;;;;;;;4787675;30;20481;-68
2022/09/17 04:39:06;;;;;;;8.70;2.70;;;;;;;;;;4786537;30;20035;-69
2022/09/17 04:41:32;;;;;;;6.50;2.40;;;;;;;;;;4787915;30;20072;-68
2022/09/17 04:43:58;;;;;;;4.10;2.05;;;;;;;;;;4787716;30;20033;-68
2022/09/17 04:46:24;;;;;;;5.05;2.70;;;;;;;;;;4787188;30;20397;-69
2022/09/17 04:48:51;;;;;;;6.90;2.75;;;;;;;;;;4787686;30;20023;-68
2022/09/17 04:51:17;;;;;;;7.97;2.53;;;;;;;;;;4787594;29;20053;-69
2022/09/17 04:53:44;;;;;;;3.58;2.20;;;;;;;;;;4787821;30;20031;-68
2022/09/17 04:56:10;;;;;;;6.45;2.60;;;;;;;;;;4787497;30;20063;-68
2022/09/17 04:58:37;;;;;;;8.00;2.75;;;;;;;;;;4787416;30;20033;-68
2022/09/17 05:01:03;;;;;;;5.30;2.20;;;;;;;;;;4787131;30;20035;-68
2022/09/17 05:03:29;;;;;;;7.63;2.55;;;;;;;;;;4786253;30;20169;-69
2022/09/17 05:05:56;;;;;;;3.45;2.30;;;;;;;;;;4787380;30;20390;-68
2022/09/17 05:08:22;;;;;;;9.18;2.75;;;;;;;;;;4787286;29;20035;-69
2022/09/17 05:10:52;;;;;;;3.58;2.25;;;;;;;;;;4790309;29;20019;-68
2022/09/17 05:13:18;;;;;;;8.73;2.60;;;;;;;;;;4805199;29;20054;-68
2022/09/17 05:15:44;;;;;;;5.43;2.38;;;;;;;;;;4805093;29;20146;-69
2022/09/17 05:18:10;;;;;;;6.00;2.53;;;;;;;;;;4805235;29;20026;-68
2022/09/17 05:20:37;;;;;;;5.15;2.65;;;;;;;;;;4804552;29;20039;-69
2022/09/17 05:23:04;;;;;;;6.00;1.95;;;;;;;;;;4805112;29;20030;-68
2022/09/17 05:25:31;;;;;;;5.97;2.60;;;;;;;;;;4805112;29;20404;-69
2022/09/17 05:27:57;;;;;;;5.05;2.60;;;;;;;;;;4805046;29;20039;-68
2022/09/17 05:30:23;;;;;;;7.35;2.58;;;;;;;;;;4804677;29;20031;-69
2022/09/17 05:32:57;;;;;;;4.30;2.40;;;;;;;;;;4795436;29;20034;-68
2022/09/17 05:35:24;;;;;;;5.00;2.10;;;;;;;;;;4787117;29;20027;-68
2022/09/17 05:37:50;;;;;;;7.22;2.65;;;;;;;;;;4786925;30;20038;-68
2022/09/17 05:40:16;;;;;;;6.13;3.28;;;;;;;;;;4787146;29;20039;-68
2022/09/17 05:42:43;;;;;;;7.95;2.50;;;;;;;;;;4787249;30;20036;-69
2022/09/17 05:45:09;;;;;;;4.45;2.30;;;;;;;;;;4786422;30;20490;-69
2022/09/17 05:47:36;;;;;;;7.30;2.40;;;;;;;;;;4786891;29;20408;-68
2022/09/17 05:50:02;;;;;;;7.78;2.65;;;;;;;;;;4787108;30;20103;-69
2022/09/17 05:52:29;;;;;;;6.38;2.38;;;;;;;;;;4787164;30;20027;-69
2022/09/17 05:54:56;;;;;;;4.85;2.47;;;;;;;;;;4786914;30;20080;-68
2022/09/17 05:57:22;;;;;;;8.70;2.67;;;;;;;;;;4786471;29;20027;-68
2022/09/17 05:59:48;;;;;;;4.72;2.05;;;;;;;;;;4786836;30;20409;-68
2022/09/17 06:02:15;;;;;;;8.38;2.30;;;;;;;;;;4786690;30;20027;-67
2022/09/17 06:04:41;;;;;;;7.43;2.40;;;;;;;;;;4787013;30;20039;-67
2022/09/17 06:07:08;;;;;;;5.00;2.13;;;;;;;;;;4785439;30;20036;-68
2022/09/17 06:09:36;;;;;;;8.50;2.00;;;;;;;;;;4786916;29;20040;-67
2022/09/17 06:12:03;;;;;;;5.60;2.20;;;;;;;;;;4798498;29;20043;-68
2022/09/17 06:14:30;;;;;;;4.88;1.77;;;;;;;;;;4804681;29;20035;-68
2022/09/17 06:16:56;;;;;;;6.22;1.83;;;;;;;;;;4804882;29;20035;-68
2022/09/17 06:19:22;;;;;;;5.35;1.80;;;;;;;;;;4805019;29;20026;-68
2022/09/17 06:21:49;;;;;;;7.45;2.03;;;;;;;;;;4804517;29;20027;-68
2022/09/17 06:24:16;;;;;;;4.28;1.60;;;;;;;;;;4804968;29;20030;-68
2022/09/17 06:26:42;;;;;;;5.63;1.75;;;;;;;;;;4804152;29;20412;-68
2022/09/17 06:29:08;;;;;;;8.30;2.20;;;;;;;;;;4803358;29;20031;-68
2022/09/17 06:31:35;;;;;;;4.72;1.50;;;;;;;;;;4806223;29;20034;-68
2022/09/17 06:34:01;;;;;;;6.95;1.73;;;;;;;;;;4789780;30;20451;-68
2022/09/17 06:36:27;;;;;;;4.50;1.60;;;;;;;;;;4789867;30;20019;-68
2022/09/17 06:38:54;;;;;;;3.70;1.40;;;;;;;;;;4789751;30;20478;-68
2022/09/17 06:41:20;;;;;;;4.60;1.40;;;;;;;;;;4789402;29;20466;-68
2022/09/17 06:43:46;;;;;;;3.58;1.20;;;;;;;;;;4789663;29;20532;-68
2022/09/17 06:46:13;;;;;;;5.57;1.42;;;;;;;;;;4789866;30;20039;-68
2022/09/17 06:48:39;;;;;;;4.10;1.33;;;;;;;;;;4789616;30;20039;-68
2022/09/17 06:51:07;;;;;;;4.75;1.40;;;;;;;;;;4789819;29;20027;-68
2022/09/17 06:53:35;;;;;;;3.78;1.30;;;;;;;;;;4789188;29;20089;-68
2022/09/17 06:56:02;;;;;;;3.42;1.25;;;;;;;;;;4789439;30;20030;-68
2022/09/17 06:58:29;;;;;;;3.72;1.33;;;;;;;;;;4789564;30;20408;-68
2022/09/17 07:01:00;;;;;;;8.20;1.30;;;;;;;;;;4789435;29;20038;-68
2022/09/17 07:03:26;;;;;;;2.75;1.20;;;;;;;;;;4789383;30;20031;-68
2022/09/17 07:05:53;;;;;;;3.72;1.20;;;;;;;;;;4789404;30;20046;-68
2022/09/17 07:08:19;;;;;;;3.88;1.25;;;;;;;;;;4789500;29;20039;-68
2022/09/17 07:10:45;;;;;;;2.35;1.00;;;;;;;;;;4790658;29;20027;-68
2022/09/17 07:13:12;;;;;;;2.33;0.98;;;;;;;;;;4807201;29;20050;-68
2022/09/17 07:15:38;;;;;;;2.75;0.95;;;;;;;;;;4807419;29;20030;-68
2022/09/17 07:18:08;;;;;;;2.67;1.35;;;;;;;;;;4807194;29;20652;-68
2022/09/17 07:20:35;;;;;;;4.10;1.15;;;;;;;;;;4807370;29;20033;-68
2022/09/17 07:23:01;;;;;;;3.03;0.90;;;;;;;;;;4806963;29;20416;-68
2022/09/17 07:25:28;;;;;;;3.95;1.00;;;;;;;;;;4806796;29;20497;-68
2022/09/17 07:27:55;;;;;;;2.15;0.95;;;;;;;;;;4806897;29;20051;-68
2022/09/17 07:30:21;;;;;;;1.50;0.88;;;;;;;;;;4807176;29;20138;-69
2022/09/17 07:32:48;;;;;;;2.60;1.00;;;;;;;;;;4796955;29;20032;-68
2022/09/17 07:35:14;;;;;;;3.65;1.10;;;;;;;;;;4788707;29;20039;-68
2022/09/17 07:37:40;;;;;;;2.58;0.90;;;;;;;;;;4788770;30;20023;-69
2022/09/17 07:40:07;;;;;;;3.08;0.90;;;;;;;;;;4788895;30;20039;-68
2022/09/17 07:42:34;;;;;;;1.63;1.00;;;;;;;;;;4786919;29;20027;-68
2022/09/17 07:45:00;;;;;;;1.95;0.88;;;;;;;;;;4788598;30;20043;-69
2022/09/17 07:47:26;;;;;;;2.70;1.40;;;;;;;;;;4788610;30;20046;-68
2022/09/17 07:49:53;;;;;;;1.63;0.80;;;;;;;;;;4787478;30;20041;-68
2022/09/17 07:52:19;;;;;;;1.80;1.10;;;;;;;;;;4788658;29;20039;-69
2022/09/17 07:54:45;;;;;;;2.95;1.00;;;;;;;;;;4788256;30;20023;-68
2022/09/17 07:57:12;;;;;;;5.05;1.30;;;;;;;;;;4788391;30;20395;-69
2022/09/17 07:59:38;;;;;;;3.08;1.10;;;;;;;;;;4788655;30;20035;-69
2022/09/17 08:02:08;;;;;;;3.58;1.40;;;;;;;;;;4788476;30;20083;-69
2022/09/17 08:04:34;;;;;;;4.05;1.00;;;;;;;;;;4788690;30;20027;-69
2022/09/17 08:07:01;;;;;;;3.30;1.23;;;;;;;;;;4787031;29;20490;-69
2022/09/17 08:09:27;;;;;;;2.15;1.10;;;;;;;;;;4788079;30;20417;-69
2022/09/17 08:11:53;;;;;;;1.83;1.08;;;;;;;;;;4799164;29;20031;-69
2022/09/17 08:14:20;;;;;;;1.73;1.00;;;;;;;;;;4806150;29;20031;-69
2022/09/17 08:16:46;;;;;;;2.63;1.23;;;;;;;;;;4806576;29;20042;-70
2022/09/17 08:19:13;;;;;;;1.20;1.00;;;;;;;;;;4806311;29;20029;-69
2022/09/17 08:21:39;;;;;;;1.92;1.10;;;;;;;;;;4806266;29;20034;-69
2022/09/17 08:24:05;;;;;;;2.45;1.15;;;;;;;;;;4805751;29;20039;-70
2022/09/17 08:26:32;;;;;;;3.13;1.25;;;;;;;;;;4805804;29;20038;-70
2022/09/17 08:28:58;;;;;;;2.00;1.20;;;;;;;;;;4806164;29;20030;-70
2022/09/17 08:31:27;;;;;;;7.03;1.30;;;;;;;;;;4806328;29;20022;-69
2022/09/17 08:33:53;;;;;;;2.15;1.17;;;;;;;;;;4787834;29;20031;-70
2022/09/17 08:36:21;;;;;;;1.02;0.90;;;;;;;;;;4787840;30;20031;-70
2022/09/17 08:38:48;;;;;;;1.15;0.90;;;;;;;;;;4787732;30;20115;-70
2022/09/17 08:41:33;;;;;;;1.27;1.08;;;;;;;;;;4788094;30;20027;-70
2022/09/17 08:44:08;;;;;;;2.00;0.90;;;;;;;;;;4787701;30;20037;-70
2022/09/17 08:46:51;;;;;;;0.90;0.90;;;;;;;;;;4787375;30;20055;-70
2022/09/17 08:49:25;;;;;;;1.65;0.95;;;;;;;;;;4787743;30;20031;-70
2022/09/17 08:51:53;;;;;;;2.10;1.27;;;;;;;;;;4787460;30;20032;-70
2022/09/17 08:54:39;;;;;;;1.20;1.00;;;;;;;;;;4786671;29;20033;-70
2022/09/17 08:57:18;;;;;;;1.60;0.90;;;;;;;;;;4787201;30;20039;-70
2022/09/17 08:59:49;;;;;;;3.88;1.20;;;;;;;;;;4786315;30;20031;-70
2022/09/17 09:02:34;;;;;;;1.48;0.80;;;;;;;;;;4787348;30;20027;-70
2022/09/17 09:05:11;;;;;;;2.13;0.90;;;;;;;;;;4787218;30;20486;-70
2022/09/17 09:07:41;;;;;;;1.17;0.88;;;;;;;;;;4786890;29;20035;-70
2022/09/17 09:10:13;;;;;;;1.70;0.98;;;;;;;;;;4787344;30;20037;-70
2022/09/17 09:12:40;;;;;;;1.38;0.80;;;;;;;;;;4804064;29;20043;-70
2022/09/17 09:15:21;;;;;;;1.17;0.70;;;;;;;;;;4805104;29;20522;-70
2022/09/17 09:17:48;;;;;;;1.10;0.93;;;;;;;;;;4805353;29;20038;-70
2022/09/17 09:20:31;;;;;;;0.70;0.70;;;;;;;;;;4805085;29;20030;-69
2022/09/17 09:23:01;;;;;;;1.17;0.90;;;;;;;;;;4805528;29;20027;-70
2022/09/17 09:25:27;;;;;;;;;;;;;;;;;;4804397;29;20042;-69
2022/09/17 09:27:53;;;;;;;1.83;0.60;;;;;;;;;;4805001;29;20425;-69
2022/09/17 09:30:22;;;;;;;1.33;0.88;;;;;;;;;;4805078;29;20031;-68
2022/09/17 09:32:48;;;;;;;2.15;0.70;;;;;;;;;;4795049;29;20035;-68
2022/09/17 09:35:18;;;;;;;1.50;0.65;;;;;;;;;;4785560;30;20443;-69
2022/09/17 09:37:48;;;;;;;3.77;0.83;;;;;;;;;;4786912;29;20059;-68
2022/09/17 09:40:14;;;;;;;;;;;;;;;;;;4787472;30;20478;-68
2022/09/17 09:42:41;;;;;;;4.38;0.70;;;;;;;;;;4787241;30;20026;-68
2022/09/17 09:45:30;;;;;;;1.52;0.55;;;;;;;;;;4786838;29;20027;-68
2022/09/17 09:48:12;;;;;;;1.00;0.70;;;;;;;;;;4766818;30;20096;-68
2022/09/17 09:50:45;;;;;;;0.50;0.50;;;;;;;;;;4766866;30;20040;-68
2022/09/17 09:53:14;;;;;;;1.20;0.70;;;;;;;;;;4767130;30;20055;-68
2022/09/17 09:55:43;;;;;;;1.52;0.70;;;;;;;;;;4767119;30;20028;-68
2022/09/17 09:58:13;;;;;;;1.35;0.63;;;;;;;;;;4766812;30;20530;-68
2022/09/17 10:00:41;;;;;;;2.50;0.70;;;;;;;;;;4767049;30;20125;-68
2022/09/17 10:03:10;;;;;;;1.90;0.50;;;;;;;;;;4766892;30;20044;-68
2022/09/17 10:05:37;;;;;;;1.00;0.60;;;;;;;;;;4767713;30;20044;-68
2022/09/17 10:08:13;;;;;;;1.77;0.40;;;;;;;;;;4770350;30;20052;-68
2022/09/17 10:10:56;;;;;;;0.55;0.40;;;;;;;;;;4772516;30;20043;-68
2022/09/17 10:13:22;;;;;;;1.23;0.60;;;;;;;;;;4788032;30;20048;-68
2022/09/17 10:15:49;;;;;;;1.02;0.50;;;;;;;;;;4787918;30;20037;-68
2022/09/17 10:18:23;;;;;;;1.70;0.50;;;;;;;;;;4787675;30;20532;-67
2022/09/17 10:20:56;;;;;;;4.32;0.70;;;;;;;;;;4788310;30;20069;-68
2022/09/17 10:23:24;;;;;;;0.60;0.45;;;;;;;;;;4788083;30;20037;-68
2022/09/17 10:25:51;;;;;;;0.93;0.57;;;;;;;;;;4805570;29;20106;-68
2022/09/17 10:28:32;;;;;;;0.90;0.70;;;;;;;;;;4807949;29;20073;-68
2022/09/17 10:31:00;;;;;;;1.30;0.50;;;;;;;;;;4808040;29;20035;-68
2022/09/17 10:33:28;;;;;;;2.53;0.60;;;;;;;;;;4793012;29;20027;-68
2022/09/17 10:35:57;;;;;;;1.27;0.50;;;;;;;;;;4789723;30;20048;-68
2022/09/17 10:38:27;;;;;;;1.02;0.60;;;;;;;;;;4789725;30;20094;-68
2022/09/17 10:40:53;;;;;;;0.40;0.40;;;;;;;;;;4789855;30;20031;-68
2022/09/17 10:43:22;;;;;;;1.17;0.73;;;;;;;;;;4789796;29;20494;-68
2022/09/17 10:45:56;;;;;;;2.38;0.50;;;;;;;;;;4789907;29;20035;-68
2022/09/17 10:48:23;;;;;;;2.63;0.70;;;;;;;;;;4789179;30;20049;-68
2022/09/17 10:50:50;;;;;;;1.05;0.50;;;;;;;;;;4789621;30;20027;-68
2022/09/17 10:53:17;;;;;;;0.40;0.40;;;;;;;;;;4789522;30;20040;-69
2022/09/17 10:55:50;;;;;;;0.73;0.60;;;;;;;;;;4789638;29;20032;-68
2022/09/17 10:58:22;;;;;;;2.47;0.50;;;;;;;;;;4789378;30;20046;-68
2022/09/17 11:01:14;;;;;;;1.08;0.50;;;;;;;;;;4789634;30;20024;-69
2022/09/17 11:03:48;;;;;;;1.05;0.70;;;;;;;;;;4788107;30;20050;-68
2022/09/17 11:06:20;;;;;;;1.27;0.50;;;;;;;;;;4789323;30;20470;-68
2022/09/17 11:08:52;;;;;;;4.20;0.70;;;;;;;;;;4788342;30;20038;-68
2022/09/17 11:11:28;;;;;;;2.05;0.80;;;;;;;;;;4796089;29;20033;-68
2022/09/17 11:14:13;;;;;;;0.57;0.50;;;;;;;;;;4807101;29;20470;-68
2022/09/17 11:16:58;;;;;;;1.67;0.60;;;;;;;;;;4806584;29;20030;-68
2022/09/17 11:19:44;;;;;;;0.60;0.40;;;;;;;;;;4807382;29;20039;-68
2022/09/17 11:22:16;;;;;;;0.85;0.57;;;;;;;;;;4807459;29;20027;-68
2022/09/17 11:25:05;;;;;;;2.15;0.50;;;;;;;;;;4807118;29;20624;-68
2022/09/17 11:27:46;;;;;;;1.17;0.47;;;;;;;;;;4806519;29;20057;-68
2022/09/17 11:30:15;;;;;;;4.25;0.60;;;;;;;;;;4806891;29;20516;-68
2022/09/17 11:33:08;;;;;;;0.65;0.40;;;;;;;;;;4797510;29;20026;-68
2022/09/17 11:35:37;;;;;;;0.82;0.43;;;;;;;;;;4788937;30;20039;-68
2022/09/17 11:38:24;;;;;;;1.42;0.60;;;;;;;;;;4788817;29;20027;-68
2022/09/17 11:40:58;;;;;;;1.10;0.40;;;;;;;;;;4788991;29;20023;-69
2022/09/17 11:43:34;;;;;;;0.40;0.40;;;;;;;;;;4788923;30;20375;-68
2022/09/17 11:46:16;;;;;;;1.33;0.60;;;;;;;;;;4788619;29;20031;-68
2022/09/17 11:48:52;;;;;;;2.42;0.50;;;;;;;;;;4788677;30;20054;-68
2022/09/17 11:51:31;;;;;;;1.45;0.50;;;;;;;;;;4788651;30;20031;-68
2022/09/17 11:54:00;;;;;;;0.50;0.50;;;;;;;;;;4788536;30;20504;-68
2022/09/17 11:56:46;;;;;;;1.17;0.55;;;;;;;;;;4788499;30;20061;-69
2022/09/17 11:59:16;;;;;;;2.05;0.60;;;;;;;;;;4788466;30;20028;-68
2022/09/17 12:02:01;;;;;;;0.40;0.40;;;;;;;;;;4788152;30;20054;-69
2022/09/17 12:04:39;;;;;;;2.38;0.60;;;;;;;;;;4788720;30;20038;-69
2022/09/17 12:07:12;;;;;;;0.95;0.50;;;;;;;;;;4788431;29;20039;-69
2022/09/17 12:09:43;;;;;;;1.67;0.60;;;;;;;;;;4788462;29;20020;-69
2022/09/17 12:12:18;;;;;;;0.95;0.50;;;;;;;;;;4801144;29;20413;-69
2022/09/17 12:14:48;;;;;;;0.88;0.40;;;;;;;;;;4805983;29;20034;-69
2022/09/17 12:17:19;;;;;;;0.90;0.50;;;;;;;;;;4806210;29;20035;-69
2022/09/17 12:19:47;;;;;;;2.53;0.70;;;;;;;;;;4806167;29;20382;-69
2022/09/17 12:22:17;;;;;;;1.77;0.50;;;;;;;;;;4806098;29;20022;-69
2022/09/17 12:24:44;;;;;;;0.98;0.70;;;;;;;;;;4806236;29;20097;-69
2022/09/17 12:27:25;;;;;;;0.60;0.60;;;;;;;;;;4806014;29;20041;-69
2022/09/17 12:29:52;;;;;;;1.17;0.70;;;;;;;;;;4805497;29;20519;-69
2022/09/17 12:32:24;;;;;;;1.27;0.60;;;;;;;;;;4799793;29;20408;-69
2022/09/17 12:34:57;;;;;;;1.25;0.70;;;;;;;;;;4788187;30;20031;-69
2022/09/17 12:37:43;;;;;;;1.88;0.80;;;;;;;;;;4786668;30;20041;-69
2022/09/17 12:40:28;;;;;;;0.70;0.70;;;;;;;;;;4767987;30;20042;-69
2022/09/17 12:43:10;;;;;;;1.27;0.68;;;;;;;;;;4767914;30;20042;-69
2022/09/17 12:45:55;;;;;;;1.48;0.60;;;;;;;;;;4767507;30;20076;-69
2022/09/17 12:48:40;;;;;;;14.90;1.52;;;;;;;;;;4767611;30;20039;-69
2022/09/17 12:51:12;;;;;;;1.08;0.60;;;;;;;;;;4767573;30;20050;-69
2022/09/17 12:53:38;;;;;;;1.13;0.60;;;;;;;;;;4767505;30;20038;-69
2022/09/17 12:56:30;;;;;;;0.65;0.65;;;;;;;;;;4767661;30;20042;-69
2022/09/17 12:59:09;;;;;;;0.80;0.65;;;;;;;;;;4767381;30;20047;-69
2022/09/17 13:01:39;;;;;;;0.75;0.73;;;;;;;;;;4752875;30;20032;-69
2022/09/17 13:04:29;;;;;;;1.50;0.70;;;;;;;;;;4767561;30;20572;-69
2022/09/17 13:06:55;;;;;;;;;;;;;;;;;;4767759;30;20494;-69
2022/09/17 13:09:27;;;;;;;3.00;0.60;;;;;;;;;;4767528;30;20443;-69
2022/09/17 13:12:14;;;;;;;0.98;0.57;;;;;;;;;;4778334;30;20148;-69
2022/09/17 13:14:59;;;;;;;1.35;0.70;;;;;;;;;;4785268;30;20558;-69
2022/09/17 13:17:44;;;;;;;1.75;0.80;;;;;;;;;;4796415;29;20500;-69
2022/09/17 13:20:29;;;;;;;1.27;0.70;;;;;;;;;;4805139;29;20023;-69
2022/09/17 13:22:56;;;;;;;0.80;0.70;;;;;;;;;;4805271;29;20038;-69
2022/09/17 13:25:23;;;;;;;0.75;0.70;;;;;;;;;;4805176;29;20041;-69
2022/09/17 13:27:50;;;;;;;0.63;0.50;;;;;;;;;;4803509;29;20071;-69
2022/09/17 13:30:18;;;;;;;0.70;0.50;;;;;;;;;;4805193;29;20417;-69
2022/09/17 13:32:45;;;;;;;0.50;0.50;;;;;;;;;;4795853;29;20035;-69
2022/09/17 13:35:14;;;;;;;1.23;0.60;;;;;;;;;;4785889;30;20068;-69
2022/09/17 13:37:59;;;;;;;2.33;0.80;;;;;;;;;;4786993;29;20501;-69
2022/09/17 13:40:25;;;;;;;2.28;0.60;;;;;;;;;;4789383;29;20031;-69
2022/09/17 13:42:56;;;;;;;1.08;0.50;;;;;;;;;;4792642;30;20435;-69
2022/09/17 13:45:23;;;;;;;0.85;0.70;;;;;;;;;;4792946;30;20034;-69
2022/09/17 13:47:55;;;;;;;0.57;0.57;;;;;;;;;;4792860;30;20047;-69
2022/09/17 13:50:28;;;;;;;1.10;0.63;;;;;;;;;;4792773;30;20023;-69
2022/09/17 13:52:56;;;;;;;1.02;0.70;;;;;;;;;;4792923;30;20046;-69
2022/09/17 13:55:42;;;;;;;2.30;0.57;;;;;;;;;;4792930;30;20029;-69
2022/09/17 13:58:18;;;;;;;3.63;0.80;;;;;;;;;;4791502;29;20043;-70
2022/09/17 14:01:01;;;;;;;0.50;0.50;;;;;;;;;;4793196;30;20031;-69
2022/09/17 14:03:32;;;;;;;0.50;0.40;;;;;;;;;;4792905;29;20024;-69
2022/09/17 14:06:07;;;;;;;1.15;0.60;;;;;;;;;;4793012;29;20314;-69
2022/09/17 14:08:40;;;;;;;1.00;0.50;;;;;;;;;;4792707;30;20039;-70
2022/09/17 14:11:27;;;;;;;2.47;0.70;;;;;;;;;;4797589;29;20035;-70
2022/09/17 14:13:56;;;;;;;0.73;0.70;;;;;;;;;;4809972;29;20051;-70
2022/09/17 14:16:24;;;;;;;0.70;0.60;;;;;;;;;;4808654;29;20041;-69
2022/09/17 14:19:09;;;;;;;1.65;0.80;;;;;;;;;;4810024;29;20039;-70
2022/09/17 14:21:36;;;;;;;0.95;0.60;;;;;;;;;;4810043;29;20030;-70
2022/09/17 14:24:04;;;;;;;1.10;0.60;;;;;;;;;;4809801;29;20037;-70
2022/09/17 14:26:30;;;;;;;1.60;0.60;;;;;;;;;;4809311;29;20026;-69
2022/09/17 14:29:07;;;;;;;2.83;0.52;;;;;;;;;;4809971;29;20033;-69
2022/09/17 14:31:35;;;;;;;0.50;0.50;;;;;;;;;;4809361;29;20029;-69
2022/09/17 14:34:06;;;;;;;0.85;0.50;;;;;;;;;;4792046;30;20041;-69
2022/09/17 14:36:35;;;;;;;3.83;0.75;;;;;;;;;;4791756;30;20581;-69
2022/09/17 14:39:02;;;;;;;0.85;0.55;;;;;;;;;;4791505;30;20035;-69
2022/09/17 14:41:34;;;;;;;1.42;0.43;;;;;;;;;;4791350;30;20404;-69
2022/09/17 14:44:13;;;;;;;1.67;0.68;;;;;;;;;;4791381;29;20032;-69
2022/09/17 14:47:00;;;;;;;0.88;0.50;;;;;;;;;;4791967;30;20031;-69
2022/09/17 14:49:28;;;;;;;1.48;0.70;;;;;;;;;;4791520;29;20043;-69
2022/09/17 14:51:55;;;;;;;2.10;0.57;;;;;;;;;;4790114;30;20031;-69
2022/09/17 14:54:23;;;;;;;0.63;0.50;;;;;;;;;;4788120;30;20027;-69
2022/09/17 14:56:59;;;;;;;0.57;0.40;;;;;;;;;;4788750;30;20027;-69
2022/09/17 14:59:28;;;;;;;1.58;0.60;;;;;;;;;;4788503;29;20042;-69
2022/09/17 15:01:55;;;;;;;0.90;0.50;;;;;;;;;;4788371;30;20031;-69